Time;durP1;ratioP1;P1;durP2;ratioP2;P2;SDS_P1;SDS_P2;PMS_P1;PMS_P2;Temp;Humidity;BMP_temperature;BMP_pressure;BME280_temperature;BME280_humidity;BME280_pressure;Samples;Min_cycle;Max_cycle;Signal;HPM_P1;HPM_P2
2023/07/08 00:01:04;;;;;;;17.70;13.70;;;;;;;;;;112641;1230;58410;-73
2023/07/08 00:03:48;;;;;;;15.20;13.60;;;;;;;;;;112637;1230;59518;-74
2023/07/08 00:06:21;;;;;;;17.80;13.70;;;;;;;;;;112636;1230;58062;-74
2023/07/08 00:08:47;;;;;;;20.20;13.20;;;;;;;;;;112685;1229;58119;-74
2023/07/08 00:11:13;;;;;;;19.40;13.80;;;;;;;;;;112699;1231;58250;-74
2023/07/08 00:13:39;;;;;;;16.80;12.90;;;;;;;;;;112770;1230;58026;-74
2023/07/08 00:16:08;;;;;;;16.90;13.60;;;;;;;;;;112604;1231;58102;-74
2023/07/08 00:18:33;;;;;;;18.20;13.50;;;;;;;;;;112621;1231;58143;-75
2023/07/08 00:20:59;;;;;;;18.80;14.20;;;;;;;;;;112655;1230;58574;-74
2023/07/08 00:23:25;;;;;;;18.70;14.10;;;;;;;;;;112150;1230;58165;-74
2023/07/08 00:25:51;;;;;;;18.10;14.20;;;;;;;;;;112686;1230;58161;-74
2023/07/08 00:28:19;;;;;;;18.00;15.40;;;;;;;;;;112585;1231;58100;-74
2023/07/08 00:30:45;;;;;;;17.50;15.60;;;;;;;;;;112622;1230;58355;-74
2023/07/08 00:33:11;;;;;;;17.50;14.30;;;;;;;;;;112634;1231;58144;-74
2023/07/08 00:35:41;;;;;;;22.40;15.50;;;;;;;;;;112703;1229;58153;-74
2023/07/08 00:38:15;;;;;;;18.40;14.20;;;;;;;;;;112384;1231;58093;-74
2023/07/08 00:40:51;;;;;;;17.50;13.30;;;;;;;;;;112621;1230;58316;-74
2023/07/08 00:43:18;;;;;;;17.80;14.90;;;;;;;;;;112618;1231;58042;-73
2023/07/08 00:45:49;;;;;;;17.00;15.20;;;;;;;;;;112350;1229;58259;-72
2023/07/08 00:48:21;;;;;;;17.10;15.00;;;;;;;;;;112616;1231;61090;-73
2023/07/08 00:50:48;;;;;;;22.30;17.50;;;;;;;;;;112646;1230;58081;-73
2023/07/08 00:53:30;;;;;;;17.80;15.40;;;;;;;;;;112621;1231;58398;-74
2023/07/08 00:56:16;;;;;;;18.70;16.70;;;;;;;;;;112615;1229;58107;-74
2023/07/08 00:58:45;;;;;;;19.30;17.40;;;;;;;;;;112407;1230;58077;-74
2023/07/08 01:01:11;;;;;;;21.00;18.40;;;;;;;;;;112655;1233;59876;-74
2023/07/08 01:03:42;;;;;;;21.60;18.10;;;;;;;;;;112651;1230;58033;-74
2023/07/08 01:06:08;;;;;;;20.40;17.00;;;;;;;;;;112633;1229;59730;-74
2023/07/08 01:08:34;;;;;;;18.40;16.50;;;;;;;;;;112605;1231;58126;-75
2023/07/08 01:11:01;;;;;;;18.80;16.90;;;;;;;;;;112637;1230;58189;-74
2023/07/08 01:13:32;;;;;;;17.20;15.50;;;;;;;;;;112529;1229;58159;-74
2023/07/08 01:15:58;;;;;;;17.80;14.80;;;;;;;;;;112639;1229;57982;-75
2023/07/08 01:18:24;;;;;;;15.10;13.60;;;;;;;;;;112655;1229;58146;-74
2023/07/08 01:20:50;;;;;;;18.40;15.40;;;;;;;;;;112620;1230;58190;-74
2023/07/08 01:23:17;;;;;;;15.70;14.20;;;;;;;;;;112348;1231;58129;-74
2023/07/08 01:25:44;;;;;;;18.30;16.40;;;;;;;;;;112623;1230;58233;-74
2023/07/08 01:28:10;;;;;;;17.90;15.10;;;;;;;;;;112689;1230;58093;-74
2023/07/08 01:30:35;;;;;;;17.70;14.80;;;;;;;;;;112617;1231;58156;-73
2023/07/08 01:33:07;;;;;;;17.80;15.90;;;;;;;;;;112655;1229;58083;-74
2023/07/08 01:35:33;;;;;;;16.80;15.00;;;;;;;;;;112640;1231;58138;-74
2023/07/08 01:38:01;;;;;;;18.00;15.40;;;;;;;;;;112651;1231;60970;-74
2023/07/08 01:40:27;;;;;;;17.30;15.40;;;;;;;;;;112656;1230;58030;-74
2023/07/08 01:42:52;;;;;;;18.40;16.30;;;;;;;;;;112642;1230;58171;-74
2023/07/08 01:45:19;;;;;;;18.60;16.20;;;;;;;;;;112656;1230;58036;-74
2023/07/08 01:47:48;;;;;;;18.70;16.70;;;;;;;;;;112671;1230;58180;-73
2023/07/08 01:50:14;;;;;;;19.20;16.80;;;;;;;;;;112730;1229;61026;-74
2023/07/08 01:52:40;;;;;;;17.30;15.00;;;;;;;;;;112651;1230;58076;-74
2023/07/08 01:55:06;;;;;;;17.20;15.50;;;;;;;;;;112454;1230;58281;-74
2023/07/08 01:57:32;;;;;;;17.60;15.80;;;;;;;;;;112603;1230;58111;-74
2023/07/08 01:59:57;;;;;;;17.40;15.50;;;;;;;;;;112702;1230;58034;-74
2023/07/08 02:02:24;;;;;;;19.10;16.50;;;;;;;;;;112640;1229;58315;-74
2023/07/08 02:04:50;;;;;;;16.40;14.70;;;;;;;;;;112702;1230;58138;-74
2023/07/08 02:07:15;;;;;;;16.70;14.80;;;;;;;;;;112682;1230;58110;-74
2023/07/08 02:09:41;;;;;;;16.90;15.10;;;;;;;;;;112609;1230;58006;-74
2023/07/08 02:12:07;;;;;;;16.80;15.10;;;;;;;;;;112675;1230;58520;-74
2023/07/08 02:14:33;;;;;;;16.20;14.50;;;;;;;;;;112488;1234;58147;-75
2023/07/08 02:16:58;;;;;;;14.60;13.10;;;;;;;;;;112638;1229;58092;-74
2023/07/08 02:19:24;;;;;;;15.30;13.80;;;;;;;;;;112366;1231;58221;-74
2023/07/08 02:21:51;;;;;;;16.30;13.80;;;;;;;;;;112747;1230;58285;-74
2023/07/08 02:24:17;;;;;;;17.10;14.60;;;;;;;;;;112726;1229;58101;-74
2023/07/08 02:26:43;;;;;;;15.40;13.80;;;;;;;;;;112416;1229;58164;-73
2023/07/08 02:29:09;;;;;;;16.00;14.20;;;;;;;;;;112631;1230;58144;-73
2023/07/08 02:31:34;;;;;;;15.80;14.20;;;;;;;;;;112626;1231;58165;-75
2023/07/08 02:34:02;;;;;;;15.20;13.70;;;;;;;;;;112706;1230;58126;-74
2023/07/08 02:36:27;;;;;;;15.20;13.40;;;;;;;;;;112643;1230;58119;-74
2023/07/08 02:38:53;;;;;;;16.30;14.50;;;;;;;;;;112655;1229;58116;-74
2023/07/08 02:41:19;;;;;;;17.50;14.30;;;;;;;;;;112712;1231;58007;-73
2023/07/08 02:43:45;;;;;;;16.00;14.40;;;;;;;;;;112624;1230;61522;-73
2023/07/08 02:46:10;;;;;;;15.50;13.90;;;;;;;;;;112664;1230;58495;-73
2023/07/08 02:48:36;;;;;;;15.00;13.50;;;;;;;;;;112646;1230;58145;-74
2023/07/08 02:51:03;;;;;;;13.80;12.40;;;;;;;;;;112614;1230;58055;-74
2023/07/08 02:53:29;;;;;;;13.90;12.50;;;;;;;;;;112610;1230;58187;-74
2023/07/08 02:55:55;;;;;;;12.20;11.00;;;;;;;;;;112702;1230;58083;-75
2023/07/08 02:58:21;;;;;;;13.10;11.80;;;;;;;;;;112657;1230;58072;-75
2023/07/08 03:00:54;;;;;;;16.20;12.50;;;;;;;;;;112710;1231;58055;-70
2023/07/08 03:03:20;;;;;;;15.10;13.60;;;;;;;;;;112601;1229;58051;-75
2023/07/08 03:05:53;;;;;;;13.70;12.40;;;;;;;;;;112501;1230;58132;-76
2023/07/08 03:08:19;;;;;;;14.20;12.60;;;;;;;;;;112708;1230;61104;-76
2023/07/08 03:10:47;;;;;;;13.50;12.20;;;;;;;;;;112706;1230;58327;-70
2023/07/08 03:13:12;;;;;;;15.90;14.30;;;;;;;;;;112606;1230;58414;-70
2023/07/08 03:15:38;;;;;;;15.80;14.10;;;;;;;;;;112576;1231;58176;-70
2023/07/08 03:18:05;;;;;;;15.20;13.70;;;;;;;;;;112646;1229;58261;-71
2023/07/08 03:20:33;;;;;;;15.80;14.10;;;;;;;;;;112613;1230;58170;-70
2023/07/08 03:22:58;;;;;;;17.30;14.90;;;;;;;;;;112661;1230;59008;-70
2023/07/08 03:25:24;;;;;;;15.20;13.10;;;;;;;;;;112319;1231;59023;-69
2023/07/08 03:27:50;;;;;;;15.70;13.90;;;;;;;;;;112642;1230;58790;-70
2023/07/08 03:30:16;;;;;;;14.50;13.10;;;;;;;;;;112626;1233;58958;-69
2023/07/08 03:32:41;;;;;;;14.40;12.90;;;;;;;;;;112694;1230;58896;-71
2023/07/08 03:35:07;;;;;;;13.90;12.60;;;;;;;;;;112669;1231;58946;-71
2023/07/08 03:37:33;;;;;;;13.20;11.90;;;;;;;;;;112292;1229;58943;-71
2023/07/08 03:39:59;;;;;;;11.80;10.70;;;;;;;;;;112633;1231;58947;-73
2023/07/08 03:42:24;;;;;;;12.60;11.40;;;;;;;;;;112655;1229;58970;-73
2023/07/08 03:44:50;;;;;;;12.10;10.90;;;;;;;;;;112666;1229;58977;-72
2023/07/08 03:47:16;;;;;;;11.90;10.70;;;;;;;;;;112630;1230;58981;-72
2023/07/08 03:49:42;;;;;;;11.90;10.70;;;;;;;;;;112720;1231;58855;-73
2023/07/08 03:52:15;;;;;;;12.40;11.30;;;;;;;;;;112610;1230;60909;-72
2023/07/08 03:54:41;;;;;;;11.40;10.30;;;;;;;;;;112633;1231;58831;-72
2023/07/08 03:57:07;;;;;;;11.10;10.00;;;;;;;;;;112616;1231;58963;-73
2023/07/08 03:59:32;;;;;;;10.80;9.80;;;;;;;;;;112626;1230;58971;-73
2023/07/08 04:01:58;;;;;;;10.60;9.60;;;;;;;;;;112655;1230;58933;-73
2023/07/08 04:04:24;;;;;;;10.20;9.10;;;;;;;;;;112637;1231;59038;-73
2023/07/08 04:06:50;;;;;;;13.00;9.40;;;;;;;;;;112701;1229;59683;-74
2023/07/08 04:09:16;;;;;;;10.10;9.10;;;;;;;;;;112643;1230;60224;-73
2023/07/08 04:11:41;;;;;;;12.20;9.10;;;;;;;;;;112321;1231;58958;-73
2023/07/08 04:14:09;;;;;;;10.10;9.20;;;;;;;;;;112646;1231;58988;-74
2023/07/08 04:16:45;;;;;;;10.60;9.50;;;;;;;;;;112608;1230;58856;-74
2023/07/08 04:19:14;;;;;;;10.30;9.30;;;;;;;;;;112617;1231;59451;-73
2023/07/08 04:21:40;;;;;;;9.80;8.20;;;;;;;;;;112595;1231;58919;-72
2023/07/08 04:24:08;;;;;;;10.80;9.20;;;;;;;;;;112662;1230;58988;-73
2023/07/08 04:26:35;;;;;;;9.40;8.40;;;;;;;;;;112650;1230;61912;-73
2023/07/08 04:29:01;;;;;;;9.20;8.30;;;;;;;;;;112615;1230;58785;-73
2023/07/08 04:31:27;;;;;;;8.80;8.00;;;;;;;;;;112586;1230;58891;-73
2023/07/08 04:33:53;;;;;;;10.80;8.00;;;;;;;;;;112634;1231;58897;-73
2023/07/08 04:36:21;;;;;;;8.60;7.80;;;;;;;;;;112632;1230;59101;-73
2023/07/08 04:38:47;;;;;;;8.40;7.60;;;;;;;;;;112594;1231;60564;-73
2023/07/08 04:41:13;;;;;;;8.60;7.60;;;;;;;;;;112539;1231;58853;-73
2023/07/08 04:43:39;;;;;;;8.60;7.70;;;;;;;;;;112628;1231;58925;-73
2023/07/08 04:46:14;;;;;;;8.70;7.70;;;;;;;;;;112642;1231;58900;-73
2023/07/08 04:48:40;;;;;;;8.30;7.50;;;;;;;;;;112696;1231;58960;-73
2023/07/08 04:51:06;;;;;;;8.70;7.60;;;;;;;;;;112652;1230;58991;-73
2023/07/08 04:53:31;;;;;;;8.00;7.20;;;;;;;;;;112647;1231;58896;-73
2023/07/08 04:55:57;;;;;;;7.40;6.70;;;;;;;;;;112318;1231;59079;-73
2023/07/08 04:58:23;;;;;;;7.60;6.90;;;;;;;;;;112603;1231;58861;-73
2023/07/08 05:00:49;;;;;;;9.20;6.40;;;;;;;;;;112654;1233;58900;-74
2023/07/08 05:03:14;;;;;;;6.70;6.10;;;;;;;;;;112697;1230;59090;-73
2023/07/08 05:05:40;;;;;;;6.70;6.10;;;;;;;;;;112585;1230;59635;-73
2023/07/08 05:08:06;;;;;;;6.80;6.20;;;;;;;;;;112595;1230;58890;-73
2023/07/08 05:10:32;;;;;;;6.90;6.30;;;;;;;;;;112589;1231;58927;-73
2023/07/08 05:12:58;;;;;;;6.70;6.00;;;;;;;;;;112682;1232;58929;-73
2023/07/08 05:15:24;;;;;;;7.40;6.20;;;;;;;;;;112646;1232;59060;-73
2023/07/08 05:17:51;;;;;;;6.00;5.50;;;;;;;;;;112615;1232;58895;-75
2023/07/08 05:20:18;;;;;;;6.50;5.90;;;;;;;;;;112649;1230;58929;-75
2023/07/08 05:22:44;;;;;;;7.00;6.30;;;;;;;;;;112682;1230;58991;-74
2023/07/08 05:25:10;;;;;;;7.30;6.50;;;;;;;;;;112660;1232;58958;-74
2023/07/08 05:27:36;;;;;;;7.50;6.60;;;;;;;;;;112339;1231;58989;-74
2023/07/08 05:30:03;;;;;;;7.10;6.50;;;;;;;;;;112568;1230;59041;-74
2023/07/08 05:32:29;;;;;;;8.30;7.40;;;;;;;;;;112630;1231;58982;-74
2023/07/08 05:34:54;;;;;;;8.40;6.40;;;;;;;;;;112703;1231;58965;-74
2023/07/08 05:37:24;;;;;;;7.90;6.80;;;;;;;;;;112746;1230;59041;-75
2023/07/08 05:39:54;;;;;;;7.30;6.60;;;;;;;;;;112616;1230;60609;-75
2023/07/08 05:42:19;;;;;;;;;;;;;;;;;;112700;1230;59186;-75
2023/07/08 05:44:45;;;;;;;6.80;6.20;;;;;;;;;;112718;1232;58989;-74
2023/07/08 05:47:10;;;;;;;7.40;6.80;;;;;;;;;;112663;1231;58943;-74
2023/07/08 05:49:36;;;;;;;7.20;6.50;;;;;;;;;;112656;1230;58915;-75
2023/07/08 05:52:08;;;;;;;7.30;5.70;;;;;;;;;;112670;1230;58968;-75
2023/07/08 05:54:34;;;;;;;6.60;6.00;;;;;;;;;;112628;1230;58885;-75
2023/07/08 05:56:59;;;;;;;6.60;6.00;;;;;;;;;;112603;1234;58999;-75
2023/07/08 05:59:25;;;;;;;6.00;5.50;;;;;;;;;;112388;1231;59662;-74
2023/07/08 06:01:51;;;;;;;6.00;5.30;;;;;;;;;;112642;1234;58822;-74
2023/07/08 06:04:16;;;;;;;5.80;5.30;;;;;;;;;;112657;1230;59069;-75
2023/07/08 06:06:42;;;;;;;7.40;5.10;;;;;;;;;;112685;1230;59814;-75
2023/07/08 06:09:08;;;;;;;5.40;4.80;;;;;;;;;;112655;1231;60559;-75
2023/07/08 06:11:34;;;;;;;5.40;4.90;;;;;;;;;;112664;1230;58889;-75
2023/07/08 06:14:00;;;;;;;6.40;5.20;;;;;;;;;;112614;1232;58884;-75
2023/07/08 06:16:25;;;;;;;5.90;5.00;;;;;;;;;;112679;1234;58823;-74
2023/07/08 06:18:51;;;;;;;5.80;5.00;;;;;;;;;;112676;1230;58999;-75
2023/07/08 06:21:17;;;;;;;5.80;4.70;;;;;;;;;;112623;1234;59173;-74
2023/07/08 06:23:42;;;;;;;7.50;5.50;;;;;;;;;;112631;1232;58878;-74
2023/07/08 06:26:08;;;;;;;6.40;4.90;;;;;;;;;;112670;1231;58929;-74
2023/07/08 06:28:34;;;;;;;6.00;4.90;;;;;;;;;;112714;1232;58930;-73
2023/07/08 06:30:59;;;;;;;6.90;5.50;;;;;;;;;;112620;1232;58941;-75
2023/07/08 06:33:25;;;;;;;5.30;4.80;;;;;;;;;;112673;1229;58870;-75
2023/07/08 06:35:51;;;;;;;4.90;4.40;;;;;;;;;;112579;1231;58917;-74
2023/07/08 06:38:17;;;;;;;5.30;4.80;;;;;;;;;;112700;1230;59340;-74
2023/07/08 06:40:42;;;;;;;4.70;4.20;;;;;;;;;;112639;1230;61997;-74
2023/07/08 06:43:08;;;;;;;6.70;5.00;;;;;;;;;;112622;1232;58918;-73
2023/07/08 06:45:34;;;;;;;5.50;4.90;;;;;;;;;;112622;1230;58836;-74
2023/07/08 06:47:59;;;;;;;4.80;4.30;;;;;;;;;;112665;1232;58952;-74
2023/07/08 06:50:25;;;;;;;5.80;5.20;;;;;;;;;;112572;1234;58990;-74
2023/07/08 06:52:51;;;;;;;5.40;4.90;;;;;;;;;;112702;1232;58889;-74
2023/07/08 06:55:17;;;;;;;4.90;4.30;;;;;;;;;;112614;1231;59662;-74
2023/07/08 06:57:42;;;;;;;7.30;4.80;;;;;;;;;;112671;1232;58934;-74
2023/07/08 07:00:09;;;;;;;4.90;4.50;;;;;;;;;;112280;1231;58961;-74
2023/07/08 07:02:35;;;;;;;6.50;4.60;;;;;;;;;;112654;1232;59003;-75
2023/07/08 07:05:01;;;;;;;5.20;4.50;;;;;;;;;;112700;1231;59080;-74
2023/07/08 07:07:28;;;;;;;5.80;4.80;;;;;;;;;;112616;1232;58954;-74
2023/07/08 07:09:54;;;;;;;5.90;5.10;;;;;;;;;;112576;1230;58958;-74
2023/07/08 07:12:20;;;;;;;5.00;4.50;;;;;;;;;;112689;1230;59001;-74
2023/07/08 07:14:46;;;;;;;5.40;4.70;;;;;;;;;;112753;1231;58834;-74
2023/07/08 07:17:12;;;;;;;5.10;4.70;;;;;;;;;;112674;1230;58971;-74
2023/07/08 07:19:38;;;;;;;5.30;4.70;;;;;;;;;;112644;1231;58925;-74
2023/07/08 07:22:04;;;;;;;4.80;4.30;;;;;;;;;;112730;1231;58867;-74
2023/07/08 07:24:30;;;;;;;5.90;4.60;;;;;;;;;;112693;1230;61845;-74
2023/07/08 07:26:55;;;;;;;5.50;4.70;;;;;;;;;;112660;1232;59293;-74
2023/07/08 07:29:22;;;;;;;7.40;5.10;;;;;;;;;;112658;1232;58849;-75
2023/07/08 07:31:47;;;;;;;5.50;4.70;;;;;;;;;;112601;1231;58915;-74
2023/07/08 07:34:14;;;;;;;4.60;4.10;;;;;;;;;;112633;1231;58885;-74
2023/07/08 07:36:40;;;;;;;5.70;5.20;;;;;;;;;;112696;1232;58854;-74
2023/07/08 07:39:06;;;;;;;5.40;4.90;;;;;;;;;;112556;1230;144663;-75
2023/07/08 07:41:32;;;;;;;6.40;4.70;;;;;;;;;;112587;1230;58965;-74
2023/07/08 07:43:57;;;;;;;4.50;4.10;;;;;;;;;;112712;1230;58913;-75
2023/07/08 07:46:23;;;;;;;4.60;4.20;;;;;;;;;;112596;1232;60566;-74
2023/07/08 07:48:49;;;;;;;4.80;4.40;;;;;;;;;;112668;1230;58894;-74
2023/07/08 07:51:15;;;;;;;5.70;5.10;;;;;;;;;;112616;1231;58910;-74
2023/07/08 07:53:41;;;;;;;5.50;5.00;;;;;;;;;;112670;1230;58875;-74
2023/07/08 07:56:07;;;;;;;4.70;4.30;;;;;;;;;;112653;1230;58804;-74
2023/07/08 07:58:33;;;;;;;4.70;4.00;;;;;;;;;;112639;1231;58943;-74
2023/07/08 08:00:58;;;;;;;5.00;4.10;;;;;;;;;;112668;1231;58862;-73
2023/07/08 08:03:24;;;;;;;5.60;4.60;;;;;;;;;;112625;1232;58933;-73
2023/07/08 08:05:50;;;;;;;5.60;4.70;;;;;;;;;;112408;1231;58981;-73
2023/07/08 08:08:16;;;;;;;5.30;4.20;;;;;;;;;;112195;1230;59083;-74
2023/07/08 08:10:42;;;;;;;5.70;4.40;;;;;;;;;;112712;1230;58995;-74
2023/07/08 08:13:09;;;;;;;5.90;4.60;;;;;;;;;;112579;1230;58836;-74
2023/07/08 08:15:35;;;;;;;5.30;4.20;;;;;;;;;;112587;1230;58948;-75
2023/07/08 08:18:01;;;;;;;6.60;3.80;;;;;;;;;;112661;1230;58830;-74
2023/07/08 08:20:27;;;;;;;4.30;3.90;;;;;;;;;;112670;1230;58998;-75
2023/07/08 08:22:53;;;;;;;4.40;3.40;;;;;;;;;;112292;1231;59027;-75
2023/07/08 08:25:19;;;;;;;4.30;3.50;;;;;;;;;;112629;1230;58936;-79
2023/07/08 08:27:45;;;;;;;4.00;3.30;;;;;;;;;;112570;1231;58931;-74
2023/07/08 08:30:11;;;;;;;3.80;3.00;;;;;;;;;;112677;1230;58947;-74
2023/07/08 08:32:37;;;;;;;5.00;3.50;;;;;;;;;;112632;1230;59034;-74
2023/07/08 08:35:03;;;;;;;3.80;3.20;;;;;;;;;;112658;1232;59066;-74
2023/07/08 08:37:29;;;;;;;3.70;3.00;;;;;;;;;;112619;1230;58839;-73
2023/07/08 08:39:55;;;;;;;6.30;3.30;;;;;;;;;;112625;1231;58882;-72
2023/07/08 08:42:34;;;;;;;5.20;3.10;;;;;;;;;;112683;1232;59260;-72
2023/07/08 08:45:02;;;;;;;2.90;2.60;;;;;;;;;;112291;1231;58969;-73
2023/07/08 08:47:34;;;;;;;4.10;2.70;;;;;;;;;;112598;1230;59426;-73
2023/07/08 08:50:18;;;;;;;3.50;2.70;;;;;;;;;;112591;1230;58925;-73
2023/07/08 08:52:44;;;;;;;2.70;2.10;;;;;;;;;;112626;1230;58768;-73
2023/07/08 08:55:13;;;;;;;2.40;2.20;;;;;;;;;;112595;1231;58992;-73
2023/07/08 08:57:39;;;;;;;;;;;;;;;;;;112617;1230;58785;-73
2023/07/08 09:00:07;;;;;;;4.20;2.40;;;;;;;;;;112551;1231;58926;-72
2023/07/08 09:02:37;;;;;;;3.70;2.60;;;;;;;;;;112623;1230;58891;-73
2023/07/08 09:05:05;;;;;;;2.80;2.00;;;;;;;;;;112684;1230;59160;-73
2023/07/08 09:07:34;;;;;;;2.10;1.80;;;;;;;;;;112614;1231;60442;-72
2023/07/08 09:10:02;;;;;;;2.60;1.90;;;;;;;;;;112600;1230;59325;-73
2023/07/08 09:12:29;;;;;;;2.50;2.00;;;;;;;;;;112572;1230;59783;-73
2023/07/08 09:14:55;;;;;;;2.10;2.00;;;;;;;;;;112630;1230;58897;-72
2023/07/08 09:17:30;;;;;;;3.40;1.90;;;;;;;;;;112602;1231;58988;-72
2023/07/08 09:20:02;;;;;;;3.30;2.00;;;;;;;;;;112632;1231;60662;-73
2023/07/08 09:22:41;;;;;;;3.20;2.10;;;;;;;;;;112576;1232;59115;-73
2023/07/08 09:25:13;;;;;;;2.70;2.20;;;;;;;;;;112596;1230;59116;-73
2023/07/08 09:27:41;;;;;;;2.90;1.80;;;;;;;;;;112589;1233;58813;-73
2023/07/08 09:30:14;;;;;;;3.20;2.00;;;;;;;;;;112625;1230;58987;-73
2023/07/08 09:32:40;;;;;;;2.10;1.70;;;;;;;;;;112578;1230;63281;-73
2023/07/08 09:35:07;;;;;;;2.80;2.10;;;;;;;;;;112626;1231;59256;-72
2023/07/08 09:37:34;;;;;;;2.30;2.10;;;;;;;;;;112542;1230;58892;-72
2023/07/08 09:40:03;;;;;;;2.50;1.90;;;;;;;;;;112596;1231;58904;-73
2023/07/08 09:42:32;;;;;;;2.30;2.10;;;;;;;;;;112591;1231;58933;-73
2023/07/08 09:45:01;;;;;;;3.20;2.20;;;;;;;;;;112557;1232;60496;-73
2023/07/08 09:47:30;;;;;;;2.40;2.20;;;;;;;;;;112591;1231;58923;-73
2023/07/08 09:49:57;;;;;;;2.40;2.10;;;;;;;;;;112622;1230;59619;-73
2023/07/08 09:52:23;;;;;;;2.10;1.90;;;;;;;;;;112598;1230;58888;-73
2023/07/08 09:54:49;;;;;;;2.40;2.00;;;;;;;;;;112646;1231;58965;-73
2023/07/08 09:57:24;;;;;;;1.90;1.80;;;;;;;;;;112604;1230;59056;-73
2023/07/08 09:59:55;;;;;;;1.80;1.60;;;;;;;;;;112664;1230;58918;-73
2023/07/08 10:02:29;;;;;;;2.10;1.90;;;;;;;;;;112618;1231;59741;-73
2023/07/08 10:04:56;;;;;;;2.00;1.80;;;;;;;;;;112634;1231;58871;-73
2023/07/08 10:07:22;;;;;;;2.70;2.10;;;;;;;;;;112612;1230;58969;-73
2023/07/08 10:09:53;;;;;;;2.10;1.80;;;;;;;;;;112648;1230;58968;-73
2023/07/08 10:12:19;;;;;;;2.60;1.80;;;;;;;;;;112289;1231;58898;-73
2023/07/08 10:14:48;;;;;;;3.90;2.30;;;;;;;;;;112590;1231;58965;-73
2023/07/08 10:17:15;;;;;;;2.50;2.20;;;;;;;;;;112585;1230;58894;-73
2023/07/08 10:19:41;;;;;;;2.10;1.70;;;;;;;;;;112264;1230;59010;-73
2023/07/08 10:22:10;;;;;;;3.10;2.10;;;;;;;;;;112641;1230;58944;-73
2023/07/08 10:24:36;;;;;;;2.10;1.80;;;;;;;;;;112612;1230;58956;-73
2023/07/08 10:27:15;;;;;;;2.70;2.00;;;;;;;;;;112577;1232;58889;-73
2023/07/08 10:29:41;;;;;;;1.60;1.50;;;;;;;;;;112671;1230;58862;-73
2023/07/08 10:32:24;;;;;;;2.40;1.60;;;;;;;;;;112642;1230;58835;-73
2023/07/08 10:34:58;;;;;;;1.60;1.50;;;;;;;;;;112262;1230;61649;-72
2023/07/08 10:37:33;;;;;;;1.80;1.70;;;;;;;;;;112260;1231;58881;-72
2023/07/08 10:40:08;;;;;;;1.80;1.70;;;;;;;;;;112604;1230;59627;-72
2023/07/08 10:42:41;;;;;;;2.10;1.70;;;;;;;;;;112607;1230;58942;-72
2023/07/08 10:45:13;;;;;;;1.60;1.50;;;;;;;;;;112635;1230;58918;-73
2023/07/08 10:47:51;;;;;;;2.70;1.80;;;;;;;;;;112699;1230;60631;-73
2023/07/08 10:50:19;;;;;;;2.00;1.90;;;;;;;;;;112606;1233;58876;-73
2023/07/08 10:53:05;;;;;;;3.00;1.90;;;;;;;;;;112594;1230;58910;-73
2023/07/08 10:55:46;;;;;;;2.10;1.90;;;;;;;;;;111833;1237;58979;-72
2023/07/08 10:58:25;;;;;;;3.10;2.10;;;;;;;;;;111851;1237;58895;-72
2023/07/08 11:00:50;;;;;;;2.70;1.80;;;;;;;;;;111868;1237;60630;-72
2023/07/08 11:03:18;;;;;;;1.80;1.60;;;;;;;;;;111846;1237;59409;-72
2023/07/08 11:05:46;;;;;;;3.00;1.60;;;;;;;;;;111825;1237;59505;-73
2023/07/08 11:08:21;;;;;;;4.50;1.60;;;;;;;;;;111855;1237;58946;-73
2023/07/08 11:10:47;;;;;;;3.40;1.60;;;;;;;;;;111848;1238;58959;-73
2023/07/08 11:13:16;;;;;;;4.80;1.70;;;;;;;;;;111872;1238;59464;-73
2023/07/08 11:15:46;;;;;;;2.20;1.80;;;;;;;;;;111887;1237;58980;-73
2023/07/08 11:18:17;;;;;;;2.30;1.80;;;;;;;;;;111889;1237;59721;-73
2023/07/08 11:20:55;;;;;;;2.30;1.70;;;;;;;;;;111841;1237;59290;-73
2023/07/08 11:23:23;;;;;;;2.00;1.80;;;;;;;;;;111839;1237;59100;-73
2023/07/08 11:25:50;;;;;;;1.70;1.60;;;;;;;;;;111624;1237;60896;-73
2023/07/08 11:28:18;;;;;;;3.40;1.80;;;;;;;;;;111910;1237;58879;-73
2023/07/08 11:30:46;;;;;;;2.50;2.10;;;;;;;;;;111847;1237;59174;-73
2023/07/08 11:33:12;;;;;;;3.10;1.80;;;;;;;;;;112249;1230;58906;-73
2023/07/08 11:35:42;;;;;;;2.30;1.80;;;;;;;;;;112571;1229;58955;-73
2023/07/08 11:38:12;;;;;;;1.80;1.70;;;;;;;;;;112580;1230;60590;-73
2023/07/08 11:40:50;;;;;;;2.40;1.80;;;;;;;;;;112656;1229;58950;-73
2023/07/08 11:43:16;;;;;;;7.90;3.20;;;;;;;;;;112562;1230;58979;-73
2023/07/08 11:45:43;;;;;;;7.20;3.00;;;;;;;;;;112581;1230;58921;-73
2023/07/08 11:48:21;;;;;;;2.70;1.80;;;;;;;;;;112657;1230;58962;-73
2023/07/08 11:50:47;;;;;;;2.30;1.80;;;;;;;;;;112235;1230;62341;-73
2023/07/08 11:53:27;;;;;;;1.70;1.60;;;;;;;;;;112587;1231;58777;-73
2023/07/08 11:55:57;;;;;;;2.20;1.70;;;;;;;;;;112604;1230;59680;-73
2023/07/08 11:58:27;;;;;;;2.40;2.00;;;;;;;;;;112567;1230;58887;-73
2023/07/08 12:01:00;;;;;;;1.80;1.70;;;;;;;;;;112652;1233;58981;-73
2023/07/08 12:03:37;;;;;;;1.90;1.80;;;;;;;;;;112651;1230;60520;-73
2023/07/08 12:06:22;;;;;;;2.20;2.00;;;;;;;;;;112663;1229;59891;-73
2023/07/08 12:08:48;;;;;;;1.90;1.60;;;;;;;;;;112614;1230;58844;-73
2023/07/08 12:11:14;;;;;;;2.10;1.90;;;;;;;;;;112652;1230;58901;-72
2023/07/08 12:13:39;;;;;;;1.70;1.60;;;;;;;;;;112614;1230;58873;-73
2023/07/08 12:16:10;;;;;;;2.10;1.90;;;;;;;;;;112633;1231;58978;-73
2023/07/08 12:18:38;;;;;;;1.90;1.80;;;;;;;;;;112630;1230;58855;-73
2023/07/08 12:21:04;;;;;;;1.90;1.50;;;;;;;;;;112579;1230;59579;-73
2023/07/08 12:23:30;;;;;;;2.20;2.00;;;;;;;;;;112584;1230;59436;-72
2023/07/08 12:25:57;;;;;;;2.40;2.00;;;;;;;;;;112669;1230;58933;-72
2023/07/08 12:28:24;;;;;;;1.40;1.30;;;;;;;;;;112616;1230;58894;-71
2023/07/08 12:30:50;;;;;;;3.00;1.80;;;;;;;;;;112631;1230;58908;-72
2023/07/08 12:33:18;;;;;;;2.30;1.70;;;;;;;;;;112627;1229;58933;-72
2023/07/08 12:35:44;;;;;;;1.80;1.50;;;;;;;;;;112668;1230;58895;-73
2023/07/08 12:38:22;;;;;;;2.90;1.70;;;;;;;;;;112617;1230;59058;-73
2023/07/08 12:40:47;;;;;;;2.30;1.80;;;;;;;;;;112598;1230;60520;-72
2023/07/08 12:43:14;;;;;;;4.10;2.30;;;;;;;;;;112387;1229;59895;-73
2023/07/08 12:45:39;;;;;;;1.90;1.70;;;;;;;;;;112570;1230;58956;-73
2023/07/08 12:48:05;;;;;;;1.70;1.60;;;;;;;;;;112623;1230;58987;-72
2023/07/08 12:50:31;;;;;;;2.70;1.40;;;;;;;;;;112617;1231;58919;-72
2023/07/08 12:52:57;;;;;;;1.90;1.60;;;;;;;;;;112623;1232;58952;-73
2023/07/08 12:55:23;;;;;;;1.70;1.60;;;;;;;;;;112682;1229;59142;-73
2023/07/08 12:57:50;;;;;;;2.70;1.50;;;;;;;;;;112587;1230;58918;-72
2023/07/08 13:00:25;;;;;;;1.50;1.40;;;;;;;;;;112659;1230;58949;-72
2023/07/08 13:03:11;;;;;;;1.80;1.60;;;;;;;;;;112618;1230;60716;-73
2023/07/08 13:05:37;;;;;;;3.50;1.70;;;;;;;;;;111866;1237;58969;-73
2023/07/08 13:08:04;;;;;;;1.50;1.40;;;;;;;;;;111842;1237;59788;-73
2023/07/08 13:10:29;;;;;;;1.40;1.30;;;;;;;;;;111841;1237;59016;-73
2023/07/08 13:12:57;;;;;;;1.50;1.40;;;;;;;;;;111863;1237;59361;-73
2023/07/08 13:15:27;;;;;;;2.50;1.50;;;;;;;;;;111849;1236;60697;-73
2023/07/08 13:17:53;;;;;;;2.20;1.60;;;;;;;;;;111892;1237;59124;-73
2023/07/08 13:20:20;;;;;;;2.70;1.30;;;;;;;;;;111859;1237;58975;-73
2023/07/08 13:22:48;;;;;;;2.30;1.50;;;;;;;;;;111836;1237;59328;-74
2023/07/08 13:25:16;;;;;;;2.60;1.60;;;;;;;;;;111854;1237;59162;-72
2023/07/08 13:27:42;;;;;;;3.40;1.80;;;;;;;;;;111863;1237;60430;-73
2023/07/08 13:30:18;;;;;;;1.70;1.40;;;;;;;;;;111882;1237;59051;-73
2023/07/08 13:32:44;;;;;;;1.60;1.50;;;;;;;;;;111817;1237;59023;-73
2023/07/08 13:35:28;;;;;;;2.30;1.50;;;;;;;;;;111869;1237;59028;-73
2023/07/08 13:37:55;;;;;;;2.10;1.50;;;;;;;;;;111832;1237;58978;-73
2023/07/08 13:40:20;;;;;;;2.50;1.60;;;;;;;;;;111890;1237;61723;-73
2023/07/08 13:42:47;;;;;;;1.60;1.50;;;;;;;;;;112167;1230;58947;-73
2023/07/08 13:45:22;;;;;;;3.20;1.80;;;;;;;;;;112584;1230;58917;-73
2023/07/08 13:48:02;;;;;;;3.20;1.50;;;;;;;;;;112589;1230;58916;-73
2023/07/08 13:50:31;;;;;;;2.70;1.50;;;;;;;;;;112592;1230;58911;-73
2023/07/08 13:52:57;;;;;;;3.00;1.70;;;;;;;;;;112654;1231;61918;-73
2023/07/08 13:55:23;;;;;;;1.80;1.70;;;;;;;;;;112667;1230;59175;-73
2023/07/08 13:57:57;;;;;;;1.50;1.40;;;;;;;;;;112533;1229;58953;-73
2023/07/08 14:00:23;;;;;;;1.80;1.40;;;;;;;;;;112589;1231;59004;-73
2023/07/08 14:02:49;;;;;;;1.40;1.30;;;;;;;;;;112615;1230;58962;-73
2023/07/08 14:05:19;;;;;;;1.60;1.30;;;;;;;;;;112629;1231;58984;-73
2023/07/08 14:07:45;;;;;;;3.40;1.60;;;;;;;;;;112642;1230;58818;-73
2023/07/08 14:10:12;;;;;;;1.30;1.20;;;;;;;;;;112626;1230;59410;-73
2023/07/08 14:12:37;;;;;;;1.60;1.40;;;;;;;;;;112675;1230;58892;-73
2023/07/08 14:15:03;;;;;;;1.40;1.30;;;;;;;;;;112662;1229;58967;-73
2023/07/08 14:17:29;;;;;;;1.70;1.60;;;;;;;;;;112646;1230;59283;-73
2023/07/08 14:19:54;;;;;;;1.60;1.50;;;;;;;;;;112636;1230;58981;-73
2023/07/08 14:22:20;;;;;;;1.80;1.20;;;;;;;;;;112652;1230;59179;-72
2023/07/08 14:24:46;;;;;;;2.00;1.40;;;;;;;;;;112612;1230;58819;-74
2023/07/08 14:27:13;;;;;;;2.70;1.50;;;;;;;;;;112616;1230;58967;-73